Time;durP1;ratioP1;P1;durP2;ratioP2;P2;SDS_P1;SDS_P2;PMS_P1;PMS_P2;Temp;Humidity;BMP_temperature;BMP_pressure;BME280_temperature;BME280_humidity;BME280_pressure;Samples;Min_cycle;Max_cycle;Signal;HPM_P1;HPM_P2
2024/02/07 00:02:00;;;;;;;27.30;19.10;;;;;;;;;;10322475;28;20506;-58
2024/02/07 00:07:01;;;;;;;30.52;18.73;;;;;;;;;;10316495;28;20426;-58
2024/02/07 00:12:03;;;;;;;27.23;18.88;;;;;;;;;;10322470;28;20391;-58
2024/02/07 00:17:04;;;;;;;30.60;18.33;;;;;;;;;;10311300;28;20027;-58
2024/02/07 00:22:05;;;;;;;28.45;17.73;;;;;;;;;;10319036;28;20038;-57
2024/02/07 00:27:06;;;;;;;28.95;18.63;;;;;;;;;;10324621;28;20042;-57
2024/02/07 00:32:06;;;;;;;34.22;17.75;;;;;;;;;;10325271;28;20037;-57
2024/02/07 00:37:07;;;;;;;26.35;16.98;;;;;;;;;;10311872;28;20039;-57
2024/02/07 00:42:08;;;;;;;29.90;17.05;;;;;;;;;;10287929;28;20035;-57
2024/02/07 00:47:10;;;;;;;22.55;16.17;;;;;;;;;;10287200;28;20026;-57
2024/02/07 00:52:11;;;;;;;28.25;16.83;;;;;;;;;;10305603;28;20027;-58
2024/02/07 00:57:12;;;;;;;22.08;16.17;;;;;;;;;;10306458;28;20035;-58
2024/02/07 01:02:14;;;;;;;21.25;16.23;;;;;;;;;;10292577;28;20113;-59
2024/02/07 01:07:15;;;;;;;22.10;15.13;;;;;;;;;;10303128;28;20026;-59
2024/02/07 01:12:16;;;;;;;20.05;15.25;;;;;;;;;;10313029;28;20031;-59
2024/02/07 01:17:18;;;;;;;22.25;14.48;;;;;;;;;;10305531;28;20513;-59
2024/02/07 01:22:19;;;;;;;23.83;15.52;;;;;;;;;;10307009;28;20038;-59
2024/02/07 01:27:20;;;;;;;21.40;15.07;;;;;;;;;;10305316;28;20030;-58
2024/02/07 01:32:22;;;;;;;20.45;14.65;;;;;;;;;;10318975;28;20030;-58
2024/02/07 01:37:22;;;;;;;21.30;14.10;;;;;;;;;;10319659;28;20085;-57
2024/02/07 01:42:28;;;;;;;21.73;13.30;;;;;;;;;;10319157;28;20039;-57
2024/02/07 01:47:29;;;;;;;22.23;13.95;;;;;;;;;;10317648;28;20082;-58
2024/02/07 01:52:35;;;;;;;21.40;14.85;;;;;;;;;;10305945;28;20528;-58
2024/02/07 01:57:35;;;;;;;20.67;14.43;;;;;;;;;;10318610;28;20390;-58
2024/02/07 02:02:36;;;;;;;20.52;13.77;;;;;;;;;;10325558;28;20030;-58
2024/02/07 02:07:37;;;;;;;18.02;13.48;;;;;;;;;;10313571;28;20516;-58
2024/02/07 02:12:40;;;;;;;17.50;12.88;;;;;;;;;;10309826;28;20015;-58
2024/02/07 02:17:41;;;;;;;18.27;13.02;;;;;;;;;;10320950;28;20094;-57
2024/02/07 02:23:09;;;;;;;18.85;13.43;;;;;;;;;;10309914;28;20029;-57
2024/02/07 02:28:37;;;;;;;19.37;13.10;;;;;;;;;;10303115;28;20057;-58
2024/02/07 02:33:39;;;;;;;16.00;12.68;;;;;;;;;;10324638;28;20037;-57
2024/02/07 02:38:40;;;;;;;17.95;13.45;;;;;;;;;;10327759;28;20042;-58
2024/02/07 02:43:40;;;;;;;15.63;12.57;;;;;;;;;;10322668;28;20527;-57
2024/02/07 02:48:41;;;;;;;16.67;12.85;;;;;;;;;;10301383;28;20037;-58
2024/02/07 02:53:43;;;;;;;18.48;13.57;;;;;;;;;;10306570;28;20033;-58
2024/02/07 02:58:44;;;;;;;16.80;12.18;;;;;;;;;;10311574;28;20525;-58
2024/02/07 03:03:53;;;;;;;18.27;12.38;;;;;;;;;;10306446;28;20524;-58
2024/02/07 03:08:54;;;;;;;18.02;12.07;;;;;;;;;;10311277;28;20027;-57
2024/02/07 03:13:54;;;;;;;15.35;11.88;;;;;;;;;;10304320;28;20026;-58
2024/02/07 03:18:58;;;;;;;14.27;11.20;;;;;;;;;;10312382;28;20996;-58
2024/02/07 03:23:59;;;;;;;15.50;11.80;;;;;;;;;;10316150;28;20437;-58
2024/02/07 03:28:59;;;;;;;15.93;11.32;;;;;;;;;;10324989;28;20038;-58
2024/02/07 03:34:00;;;;;;;16.63;11.65;;;;;;;;;;10301521;28;20068;-58
2024/02/07 03:39:01;;;;;;;15.07;11.05;;;;;;;;;;10301580;28;20058;-58
2024/02/07 03:44:02;;;;;;;15.60;11.15;;;;;;;;;;10315029;28;20034;-58
2024/02/07 03:49:03;;;;;;;12.40;9.77;;;;;;;;;;10313197;28;20041;-58
2024/02/07 03:54:09;;;;;;;14.45;10.45;;;;;;;;;;10313668;28;20035;-58
2024/02/07 03:59:09;;;;;;;13.55;10.20;;;;;;;;;;10309413;28;20125;-58
2024/02/07 04:04:10;;;;;;;15.15;10.82;;;;;;;;;;10325328;28;20022;-57
2024/02/07 04:09:10;;;;;;;13.52;10.02;;;;;;;;;;10306855;28;20509;-57
2024/02/07 05:17:41;;;;;;;12.02;9.02;;;;;;;;;;10319051;28;20026;-56
2024/02/07 05:22:41;;;;;;;11.30;9.18;;;;;;;;;;10314057;28;20022;-54
2024/02/07 05:27:43;;;;;;;10.65;9.13;;;;;;;;;;10301468;28;20045;-56
2024/02/07 05:32:44;;;;;;;12.77;8.77;;;;;;;;;;10308157;28;20034;-56
2024/02/07 05:37:45;;;;;;;11.30;8.82;;;;;;;;;;10307370;28;20492;-55
2024/02/07 05:42:46;;;;;;;12.88;9.23;;;;;;;;;;10309871;28;20042;-56
2024/02/07 05:47:46;;;;;;;11.93;9.02;;;;;;;;;;10306121;28;20027;-56
2024/02/07 05:52:47;;;;;;;11.57;9.60;;;;;;;;;;10313343;28;20038;-57
2024/02/07 05:57:48;;;;;;;10.05;8.65;;;;;;;;;;10324095;28;20035;-57
2024/02/07 06:02:49;;;;;;;10.95;8.68;;;;;;;;;;10314375;28;20042;-57
2024/02/07 06:07:49;;;;;;;10.20;8.68;;;;;;;;;;10326535;28;20370;-58
2024/02/07 06:12:50;;;;;;;11.77;8.35;;;;;;;;;;10330244;28;20394;-59
2024/02/07 06:17:50;;;;;;;11.73;9.35;;;;;;;;;;10330425;28;20042;-58
2024/02/07 06:22:51;;;;;;;10.90;8.68;;;;;;;;;;10319116;28;20047;-59
2024/02/07 06:27:52;;;;;;;11.82;8.40;;;;;;;;;;10329192;28;20031;-59
2024/02/07 06:32:52;;;;;;;10.68;8.60;;;;;;;;;;10328807;28;20022;-58
2024/02/07 06:37:53;;;;;;;10.73;8.52;;;;;;;;;;10326435;28;20046;-59
2024/02/07 06:42:54;;;;;;;12.20;8.77;;;;;;;;;;10315536;28;20038;-59
2024/02/07 06:47:55;;;;;;;10.88;7.97;;;;;;;;;;10321219;28;20030;-61
2024/02/07 06:52:55;;;;;;;11.27;8.70;;;;;;;;;;10322272;28;20027;-61
2024/02/07 06:57:56;;;;;;;9.88;8.32;;;;;;;;;;10327578;28;20399;-59
2024/02/07 07:02:57;;;;;;;26.13;9.85;;;;;;;;;;10325084;28;20374;-59
2024/02/07 07:07:58;;;;;;;13.38;10.68;;;;;;;;;;10321488;28;20030;-60
2024/02/07 07:12:58;;;;;;;20.10;12.73;;;;;;;;;;10317137;28;20042;-59
2024/02/07 07:17:59;;;;;;;20.90;13.68;;;;;;;;;;10323166;28;20088;-58
2024/02/07 07:23:03;;;;;;;31.52;14.05;;;;;;;;;;10327429;28;20037;-58
2024/02/07 07:28:04;;;;;;;22.25;15.07;;;;;;;;;;10327278;28;20058;-58
2024/02/07 07:33:05;;;;;;;20.88;14.18;;;;;;;;;;10326791;28;20030;-58
2024/02/07 07:38:08;;;;;;;32.38;15.55;;;;;;;;;;10325382;28;20046;-58
2024/02/07 07:43:08;;;;;;;25.10;15.45;;;;;;;;;;10326670;28;20390;-59
2024/02/07 07:48:09;;;;;;;27.85;15.75;;;;;;;;;;10326148;28;20037;-57
2024/02/07 07:53:10;;;;;;;28.10;16.73;;;;;;;;;;10320462;28;20035;-58
2024/02/07 07:58:10;;;;;;;27.65;16.92;;;;;;;;;;10301897;28;20018;-58
2024/02/07 08:03:11;;;;;;;22.67;15.60;;;;;;;;;;10301567;28;20060;-59
2024/02/07 08:08:12;;;;;;;26.17;16.00;;;;;;;;;;10313798;28;20118;-58
2024/02/07 08:13:13;;;;;;;25.60;16.25;;;;;;;;;;10302361;28;20023;-58
2024/02/07 08:18:13;;;;;;;24.10;15.88;;;;;;;;;;10311210;28;20069;-57
2024/02/07 08:23:14;;;;;;;24.88;16.48;;;;;;;;;;10312595;28;20026;-58
2024/02/07 08:28:14;;;;;;;20.08;15.65;;;;;;;;;;10299680;28;20394;-58
2024/02/07 08:33:15;;;;;;;24.48;15.27;;;;;;;;;;10304616;28;20034;-57
2024/02/07 08:38:16;;;;;;;22.15;15.23;;;;;;;;;;10308070;28;20564;-58
2024/02/07 08:43:16;;;;;;;19.77;14.98;;;;;;;;;;10324703;28;20034;-58
2024/02/07 08:48:17;;;;;;;21.45;15.55;;;;;;;;;;10297414;28;20029;-58
2024/02/07 08:53:17;;;;;;;24.13;15.80;;;;;;;;;;10312580;28;20035;-58
2024/02/07 08:58:18;;;;;;;22.70;16.58;;;;;;;;;;10311626;28;20390;-57
2024/02/07 09:03:19;;;;;;;21.88;15.95;;;;;;;;;;10287850;28;20039;-58
2024/02/07 09:08:19;;;;;;;23.10;16.23;;;;;;;;;;10312830;28;20030;-58
2024/02/07 09:13:20;;;;;;;21.65;16.13;;;;;;;;;;10299371;28;20055;-58
2024/02/07 09:18:21;;;;;;;22.92;16.05;;;;;;;;;;10311733;28;20038;-58
2024/02/07 09:23:21;;;;;;;23.02;16.25;;;;;;;;;;10300354;28;20023;-58
2024/02/07 09:28:22;;;;;;;22.98;16.52;;;;;;;;;;10309547;28;20018;-57
2024/02/07 09:33:22;;;;;;;26.65;16.83;;;;;;;;;;10291901;28;20030;-60
2024/02/07 09:38:26;;;;;;;26.02;17.75;;;;;;;;;;10302632;28;20053;-57
2024/02/07 09:43:27;;;;;;;22.55;16.50;;;;;;;;;;10298310;28;20038;-58
2024/02/07 09:48:28;;;;;;;28.77;17.58;;;;;;;;;;10322461;28;20466;-57
2024/02/07 09:53:33;;;;;;;23.40;16.67;;;;;;;;;;10304008;28;20097;-58
2024/02/07 09:58:34;;;;;;;22.73;16.45;;;;;;;;;;10304632;28;20015;-58
2024/02/07 10:03:39;;;;;;;24.80;17.35;;;;;;;;;;10320954;28;20389;-58
2024/02/07 10:08:44;;;;;;;24.15;16.58;;;;;;;;;;10343246;28;20035;-57
2024/02/07 10:13:46;;;;;;;23.48;17.20;;;;;;;;;;10334748;28;20065;-57
2024/02/07 10:18:49;;;;;;;24.25;17.38;;;;;;;;;;10316454;28;20046;-58
2024/02/07 10:23:50;;;;;;;23.88;18.20;;;;;;;;;;10305713;28;20036;-58
2024/02/07 10:29:01;;;;;;;24.35;18.23;;;;;;;;;;10305875;28;20479;-58
2024/02/07 10:34:02;;;;;;;27.58;18.52;;;;;;;;;;10293395;28;20094;-58
2024/02/07 10:39:03;;;;;;;26.55;18.50;;;;;;;;;;10316596;28;20054;-58
2024/02/07 10:44:08;;;;;;;26.45;17.92;;;;;;;;;;10315903;28;20088;-58
2024/02/07 10:49:12;;;;;;;24.02;18.30;;;;;;;;;;10311975;28;20027;-58
2024/02/07 10:54:13;;;;;;;25.40;19.63;;;;;;;;;;10295266;28;20054;-58
2024/02/07 10:59:14;;;;;;;26.30;18.40;;;;;;;;;;10304020;28;20023;-58
2024/02/07 11:04:15;;;;;;;27.23;19.95;;;;;;;;;;10315569;28;20092;-58
2024/02/07 11:09:16;;;;;;;32.10;20.98;;;;;;;;;;10303909;28;20247;-58
2024/02/07 11:14:17;;;;;;;38.63;22.08;;;;;;;;;;10303622;28;20034;-58
2024/02/07 11:19:18;;;;;;;30.80;21.50;;;;;;;;;;10302949;28;20019;-58
2024/02/07 11:24:21;;;;;;;32.88;21.13;;;;;;;;;;10303479;28;20019;-57
2024/02/07 11:29:23;;;;;;;34.03;22.73;;;;;;;;;;10305390;28;20029;-58
2024/02/07 11:34:26;;;;;;;31.05;22.27;;;;;;;;;;10306295;28;20026;-57
2024/02/07 11:39:26;;;;;;;32.65;21.27;;;;;;;;;;10361142;23;20121;-54
2024/02/07 11:44:28;;;;;;;31.80;21.38;;;;;;;;;;10331569;28;20080;-52
2024/02/07 11:49:29;;;;;;;30.02;21.67;;;;;;;;;;10361764;28;20266;-57
2024/02/07 11:54:33;;;;;;;29.77;21.85;;;;;;;;;;10352036;28;20252;-51
2024/02/07 11:59:34;;;;;;;30.77;20.52;;;;;;;;;;10362679;28;20057;-52
2024/02/07 12:04:41;;;;;;;28.77;20.77;;;;;;;;;;10363617;28;20128;-54
2024/02/07 12:09:42;;;;;;;30.20;20.77;;;;;;;;;;10377118;28;20040;-52
2024/02/07 12:14:43;;;;;;;29.17;21.08;;;;;;;;;;10363904;28;20018;-51
2024/02/07 12:19:44;;;;;;;30.63;20.55;;;;;;;;;;10363052;28;20030;-58
2024/02/07 12:24:45;;;;;;;30.02;20.85;;;;;;;;;;10354524;28;20026;-54
2024/02/07 12:29:54;;;;;;;30.25;21.27;;;;;;;;;;10358795;28;20037;-49
2024/02/07 12:34:55;;;;;;;30.63;22.17;;;;;;;;;;10361963;28;20022;-65
2024/02/07 12:39:56;;;;;;;29.73;21.35;;;;;;;;;;10361615;28;20137;-50
2024/02/07 12:44:56;;;;;;;34.88;21.85;;;;;;;;;;10345603;28;20030;-51
2024/02/07 12:49:57;;;;;;;30.33;21.15;;;;;;;;;;10350223;28;20042;-51
2024/02/07 12:55:01;;;;;;;28.45;20.75;;;;;;;;;;10350066;28;20120;-48
2024/02/07 13:00:11;;;;;;;29.67;20.77;;;;;;;;;;10360572;28;20120;-51
2024/02/07 13:05:11;;;;;;;31.08;19.23;;;;;;;;;;10341268;28;20057;-52
2024/02/07 13:10:12;;;;;;;27.52;19.90;;;;;;;;;;10354066;28;20022;-52
2024/02/07 13:15:17;;;;;;;27.45;20.08;;;;;;;;;;10369601;28;20026;-49
2024/02/07 13:20:19;;;;;;;23.85;17.42;;;;;;;;;;10329930;28;20078;-52
2024/02/07 13:25:21;;;;;;;31.70;19.77;;;;;;;;;;10326421;28;20022;-49
2024/02/07 13:30:23;;;;;;;25.50;18.23;;;;;;;;;;10366759;28;20034;-48
2024/02/07 13:35:24;;;;;;;24.08;18.38;;;;;;;;;;10355017;28;20509;-51
2024/02/07 13:40:25;;;;;;;23.95;18.15;;;;;;;;;;10333688;28;20030;-49
2024/02/07 13:45:26;;;;;;;22.13;17.00;;;;;;;;;;10331404;28;21358;-50
2024/02/07 13:50:26;;;;;;;27.48;18.05;;;;;;;;;;10331011;28;20022;-49
2024/02/07 13:55:27;;;;;;;23.73;16.95;;;;;;;;;;10312713;28;20026;-48
2024/02/07 14:00:28;;;;;;;23.38;16.73;;;;;;;;;;10348786;28;20030;-48
2024/02/07 14:05:28;;;;;;;22.00;16.55;;;;;;;;;;10331606;28;20037;-51
2024/02/07 14:10:29;;;;;;;25.75;16.52;;;;;;;;;;10335228;28;20034;-47
2024/02/07 14:15:29;;;;;;;26.35;17.30;;;;;;;;;;10330232;28;20030;-49
2024/02/07 14:20:30;;;;;;;22.23;16.38;;;;;;;;;;10329868;28;20368;-49
2024/02/07 14:25:30;;;;;;;20.92;16.30;;;;;;;;;;10331242;28;20061;-48
2024/02/07 14:30:32;;;;;;;22.88;16.13;;;;;;;;;;10329950;28;20028;-55
2024/02/07 14:35:33;;;;;;;23.15;16.25;;;;;;;;;;10329354;28;20045;-49
2024/02/07 14:40:33;;;;;;;27.45;16.50;;;;;;;;;;10339392;28;20037;-52
2024/02/07 14:45:34;;;;;;;22.67;16.13;;;;;;;;;;10364681;28;20053;-53
2024/02/07 14:50:37;;;;;;;22.75;16.48;;;;;;;;;;10345364;28;20097;-55
2024/02/07 14:55:38;;;;;;;20.42;15.68;;;;;;;;;;10323520;28;20102;-51
2024/02/07 15:00:39;;;;;;;22.33;15.73;;;;;;;;;;10328978;28;20033;-52
2024/02/07 15:05:39;;;;;;;21.85;16.00;;;;;;;;;;10337818;28;20340;-51
2024/02/07 15:10:41;;;;;;;19.13;14.88;;;;;;;;;;10342327;28;20014;-52
2024/02/07 15:15:43;;;;;;;21.73;14.75;;;;;;;;;;10363601;28;20028;-54
2024/02/07 15:20:43;;;;;;;20.90;15.90;;;;;;;;;;10349645;28;20088;-51
2024/02/07 15:25:49;;;;;;;19.73;14.93;;;;;;;;;;10327100;28;20363;-51
2024/02/07 15:30:53;;;;;;;20.20;15.18;;;;;;;;;;10325719;28;20084;-58
2024/02/07 15:35:54;;;;;;;20.42;14.57;;;;;;;;;;10337261;28;20050;-51
2024/02/07 15:40:55;;;;;;;20.90;15.07;;;;;;;;;;10326816;28;20482;-49
2024/02/07 15:45:57;;;;;;;23.00;15.75;;;;;;;;;;10329252;28;20053;-64
2024/02/07 15:50:58;;;;;;;19.00;15.07;;;;;;;;;;10326784;28;20018;-52
2024/02/07 15:55:58;;;;;;;18.88;14.73;;;;;;;;;;10323856;28;20029;-54
2024/02/07 16:00:59;;;;;;;18.90;14.07;;;;;;;;;;10326145;28;20038;-54
2024/02/07 16:06:01;;;;;;;21.23;15.95;;;;;;;;;;10326153;28;20355;-54
2024/02/07 16:11:03;;;;;;;17.88;14.13;;;;;;;;;;10328973;28;20394;-52
2024/02/07 16:16:04;;;;;;;18.67;14.40;;;;;;;;;;10325510;28;20053;-53
2024/02/07 16:21:05;;;;;;;19.20;14.38;;;;;;;;;;10325129;28;20124;-52
2024/02/07 16:26:05;;;;;;;19.85;14.95;;;;;;;;;;10324089;28;20383;-48
2024/02/07 16:31:07;;;;;;;25.33;15.85;;;;;;;;;;10325196;28;20455;-50
2024/02/07 16:36:08;;;;;;;21.58;15.82;;;;;;;;;;10324522;28;20550;-51
2024/02/07 16:41:09;;;;;;;19.40;15.13;;;;;;;;;;10337467;28;20441;-49
2024/02/07 16:46:10;;;;;;;19.67;14.88;;;;;;;;;;10358573;28;20053;-50
2024/02/07 16:51:10;;;;;;;20.63;15.63;;;;;;;;;;10339789;28;20030;-51
2024/02/07 16:56:14;;;;;;;21.67;16.55;;;;;;;;;;10362120;28;20105;-51
2024/02/07 17:01:23;;;;;;;28.13;17.15;;;;;;;;;;10350779;28;20045;-51
2024/02/07 17:06:23;;;;;;;22.57;16.17;;;;;;;;;;10345316;28;20065;-52
2024/02/07 17:11:26;;;;;;;20.85;15.88;;;;;;;;;;10350707;28;20065;-58
2024/02/07 17:16:26;;;;;;;24.50;17.27;;;;;;;;;;10364477;28;20045;-52
2024/02/07 17:21:27;;;;;;;21.08;16.60;;;;;;;;;;10334651;28;20076;-51
2024/02/07 17:26:27;;;;;;;24.65;17.08;;;;;;;;;;10341157;28;20022;-50
2024/02/07 17:31:28;;;;;;;24.77;15.98;;;;;;;;;;10338174;28;20030;-50
2024/02/07 17:36:28;;;;;;;22.48;16.40;;;;;;;;;;10337216;28;20046;-51
2024/02/07 17:41:29;;;;;;;21.73;16.25;;;;;;;;;;10351315;28;20027;-49
2024/02/07 17:46:30;;;;;;;22.48;16.90;;;;;;;;;;10338953;28;20027;-57
2024/02/07 17:51:30;;;;;;;24.73;17.23;;;;;;;;;;10346998;28;20158;-52
2024/02/07 17:56:31;;;;;;;20.77;15.60;;;;;;;;;;10359269;28;20033;-49
2024/02/07 18:01:31;;;;;;;22.25;15.45;;;;;;;;;;10362967;28;20044;-51
2024/02/07 18:06:32;;;;;;;24.55;15.55;;;;;;;;;;10360184;28;20025;-49
2024/02/07 18:11:32;;;;;;;23.27;15.40;;;;;;;;;;10351062;28;20034;-50
2024/02/07 18:16:33;;;;;;;19.90;15.00;;;;;;;;;;10362656;28;20038;-52
2024/02/07 18:21:34;;;;;;;22.80;15.88;;;;;;;;;;10357599;28;20080;-50
2024/02/07 18:26:36;;;;;;;19.67;15.27;;;;;;;;;;10358479;28;20025;-55
2024/02/07 18:31:37;;;;;;;21.85;15.48;;;;;;;;;;10359890;28;20026;-50
2024/02/07 18:36:38;;;;;;;26.35;14.45;;;;;;;;;;10359037;28;20097;-49
2024/02/07 18:41:39;;;;;;;22.38;14.65;;;;;;;;;;10343805;28;20543;-52
2024/02/07 18:46:39;;;;;;;18.38;14.48;;;;;;;;;;10352674;28;20096;-52
2024/02/07 18:51:40;;;;;;;22.67;15.45;;;;;;;;;;10333661;28;20061;-53
2024/02/07 18:56:41;;;;;;;30.55;17.38;;;;;;;;;;10330245;28;20029;-53
2024/02/07 19:01:41;;;;;;;25.52;16.92;;;;;;;;;;10329287;28;20034;-55
2024/02/07 19:06:42;;;;;;;25.58;16.92;;;;;;;;;;10332355;28;20041;-53
2024/02/07 19:11:42;;;;;;;24.75;16.98;;;;;;;;;;10333080;28;20031;-50
2024/02/07 19:16:43;;;;;;;22.83;16.48;;;;;;;;;;10333502;28;20106;-49
2024/02/07 19:21:44;;;;;;;24.00;16.15;;;;;;;;;;10310731;28;20035;-49
2024/02/07 19:26:50;;;;;;;24.10;16.63;;;;;;;;;;10326506;28;20034;-52
2024/02/07 19:31:51;;;;;;;19.83;15.45;;;;;;;;;;10338107;28;20033;-53
2024/02/07 19:36:52;;;;;;;21.27;15.18;;;;;;;;;;10335653;28;20050;-49
2024/02/07 19:41:54;;;;;;;22.35;14.68;;;;;;;;;;10339890;28;20076;-50
2024/02/07 19:46:55;;;;;;;20.05;14.52;;;;;;;;;;10339675;28;20033;-49
2024/02/07 19:51:56;;;;;;;20.92;14.20;;;;;;;;;;10336323;28;20030;-49
2024/02/07 19:56:57;;;;;;;22.73;15.30;;;;;;;;;;10327468;28;20038;-49
2024/02/07 20:01:58;;;;;;;23.52;14.57;;;;;;;;;;10340613;28;20399;-49
2024/02/07 20:06:58;;;;;;;17.20;13.77;;;;;;;;;;10333223;28;20045;-49
2024/02/07 20:11:59;;;;;;;24.63;15.05;;;;;;;;;;10322182;28;20097;-49
2024/02/07 20:17:00;;;;;;;19.73;14.00;;;;;;;;;;10318416;28;20186;-51
2024/02/07 20:22:03;;;;;;;17.00;13.82;;;;;;;;;;10314474;28;20578;-49
2024/02/07 20:27:04;;;;;;;20.83;14.45;;;;;;;;;;10323438;28;20548;-53
2024/02/07 20:32:05;;;;;;;18.10;14.18;;;;;;;;;;10314584;28;20037;-52
2024/02/07 20:37:06;;;;;;;18.48;14.00;;;;;;;;;;10328531;28;20355;-49
2024/02/07 20:42:06;;;;;;;20.98;13.48;;;;;;;;;;10332768;28;20046;-53
2024/02/07 20:47:07;;;;;;;17.65;12.93;;;;;;;;;;10332453;28;20097;-55
2024/02/07 20:52:08;;;;;;;16.50;13.13;;;;;;;;;;10326751;28;20030;-50
2024/02/07 20:57:08;;;;;;;17.75;13.32;;;;;;;;;;10322787;28;20033;-48
2024/02/07 21:02:09;;;;;;;30.50;15.88;;;;;;;;;;10322099;28;20065;-55
2024/02/07 21:07:09;;;;;;;38.13;20.08;;;;;;;;;;10321298;28;20027;-52
2024/02/07 21:12:10;;;;;;;31.90;20.38;;;;;;;;;;10317352;28;20030;-53
2024/02/07 21:17:10;;;;;;;32.97;22.15;;;;;;;;;;10320761;28;20450;-58
2024/02/07 21:22:11;;;;;;;36.13;22.23;;;;;;;;;;10336252;28;20046;-54
2024/02/07 21:27:12;;;;;;;35.85;22.65;;;;;;;;;;10320488;28;20046;-54
2024/02/07 21:32:13;;;;;;;35.72;20.55;;;;;;;;;;10340076;28;20060;-53
2024/02/07 21:37:15;;;;;;;31.35;19.63;;;;;;;;;;10338789;28;20533;-52
2024/02/07 21:42:16;;;;;;;29.90;19.95;;;;;;;;;;10334911;28;20042;-52
2024/02/07 21:47:17;;;;;;;30.70;20.23;;;;;;;;;;10336538;28;20034;-54
2024/02/07 21:52:18;;;;;;;29.77;19.90;;;;;;;;;;10332332;28;20027;-52
2024/02/07 21:57:19;;;;;;;29.05;18.77;;;;;;;;;;10328523;28;20475;-51
2024/02/07 22:02:19;;;;;;;30.02;18.67;;;;;;;;;;10352527;28;20385;-55
2024/02/07 22:07:20;;;;;;;33.33;19.02;;;;;;;;;;10328438;28;20046;-54
2024/02/07 22:12:23;;;;;;;27.70;17.85;;;;;;;;;;10300610;28;20027;-59
2024/02/07 22:17:26;;;;;;;32.42;19.15;;;;;;;;;;10283631;28;20023;-53
2024/02/07 22:22:28;;;;;;;31.13;18.98;;;;;;;;;;10294816;28;20031;-56
2024/02/07 22:27:29;;;;;;;29.52;18.30;;;;;;;;;;10296719;28;20035;-54
2024/02/07 22:32:30;;;;;;;24.88;16.92;;;;;;;;;;10296043;28;20030;-63
2024/02/07 22:37:31;;;;;;;25.50;17.15;;;;;;;;;;10296726;28;20368;-53
2024/02/07 22:42:31;;;;;;;28.20;17.02;;;;;;;;;;10307479;28;20363;-53
2024/02/07 22:47:32;;;;;;;23.15;15.98;;;;;;;;;;10291390;28;20030;-53
2024/02/07 22:52:33;;;;;;;26.33;16.90;;;;;;;;;;10292979;28;20090;-56
2024/02/07 22:57:33;;;;;;;24.23;16.33;;;;;;;;;;10276246;28;20399;-54
2024/02/07 23:02:34;;;;;;;25.85;16.58;;;;;;;;;;10286806;28;20054;-52
2024/02/07 23:07:34;;;;;;;21.52;15.75;;;;;;;;;;10287299;28;20410;-54
2024/02/07 23:12:35;;;;;;;21.70;14.88;;;;;;;;;;10287798;28;20356;-53
2024/02/07 23:17:35;;;;;;;18.40;14.40;;;;;;;;;;10286934;28;20386;-53
2024/02/07 23:22:36;;;;;;;23.20;15.55;;;;;;;;;;10286998;28;20363;-53
2024/02/07 23:27:36;;;;;;;23.85;15.45;;;;;;;;;;10286313;28;20027;-53
2024/02/07 23:32:37;;;;;;;24.48;15.13;;;;;;;;;;10292133;28;20023;-53
2024/02/07 23:37:38;;;;;;;25.15;15.27;;;;;;;;;;10279077;28;20394;-56
2024/02/07 23:42:39;;;;;;;23.40;14.68;;;;;;;;;;10283308;28;20395;-52
2024/02/07 23:47:39;;;;;;;23.15;14.18;;;;;;;;;;10275377;28;20030;-52
2024/02/07 23:52:40;;;;;;;21.80;14.75;;;;;;;;;;10285079;28;20033;-53
2024/02/07 23:57:41;;;;;;;25.42;14.85;;;;;;;;;;10280802;28;20054;-54
